createdAt,value
2023-03-06T00:02:37.468Z,99239.60
2023-03-06T00:05:40.798Z,99237.60
2023-03-06T00:13:10.015Z,99240.20
2023-03-06T00:16:36.526Z,99233.00
2023-03-06T00:20:30.712Z,99233.80
2023-03-06T00:24:50.888Z,99234.20
2023-03-06T00:33:37.552Z,99234.80
2023-03-06T00:38:11.866Z,99229.00
2023-03-06T00:42:45.651Z,99227.20
2023-03-06T00:47:25.871Z,99210.20
2023-03-06T00:51:04.193Z,99205.00
2023-03-06T00:54:20.824Z,99201.20
2023-03-06T00:58:40.964Z,99198.60
2023-03-06T01:02:57.700Z,99190.20
2023-03-06T01:07:33.261Z,99185.20
2023-03-06T01:11:52.002Z,99181.00
2023-03-06T01:16:24.966Z,99170.40
2023-03-06T01:20:37.034Z,99163.40
2023-03-06T01:24:31.020Z,99156.20
2023-03-06T01:27:33.606Z,99157.00
2023-03-06T01:31:54.118Z,99153.60
2023-03-06T01:35:35.495Z,99155.60
2023-03-06T01:39:55.196Z,99148.00
2023-03-06T01:44:32.660Z,99139.60
2023-03-06T01:49:05.076Z,99131.00
2023-03-06T01:53:36.107Z,99134.80
2023-03-06T01:58:11.425Z,99126.40
2023-03-06T02:02:37.604Z,99122.40
2023-03-06T02:06:11.309Z,99122.60
2023-03-06T02:10:33.291Z,99121.00
2023-03-06T02:15:09.538Z,99123.80
2023-03-06T02:19:46.877Z,99114.00
2023-03-06T02:24:29.731Z,99102.60
2023-03-06T02:29:00.842Z,99092.60
2023-03-06T02:33:13.905Z,99089.20
2023-03-06T02:37:45.721Z,99080.60
2023-03-06T02:40:58.372Z,99077.00
2023-03-06T02:53:53.871Z,99056.60
2023-03-06T02:58:26.427Z,99065.00
2023-03-06T03:02:59.353Z,99056.40
2023-03-06T03:07:34.613Z,99052.60
2023-03-06T03:12:14.982Z,99044.60
2023-03-06T03:15:09.376Z,99041.00
2023-03-06T03:17:41.707Z,99034.00
2023-03-06T03:23:44.062Z,99031.00
2023-03-06T03:28:25.334Z,99029.20
2023-03-06T03:32:47.400Z,99016.60
2023-03-06T03:37:12.566Z,99011.80
2023-03-06T03:49:40.177Z,99006.60
2023-03-06T03:52:12.050Z,98999.60
2023-03-06T04:04:44.266Z,98987.60
2023-03-06T06:02:17.339Z,98931.60
2023-03-06T06:04:45.893Z,98932.80
2023-03-06T06:07:16.368Z,98933.60
2023-03-06T06:09:58.500Z,98929.40
2023-03-06T06:12:40.661Z,98930.60
2023-03-06T06:15:22.928Z,98930.60
2023-03-06T06:18:05.081Z,98924.60
2023-03-06T06:20:33.562Z,98931.60
2023-03-06T06:23:02.262Z,98929.60
2023-03-06T06:28:29.781Z,98938.00
2023-03-06T06:30:58.194Z,98937.40
2023-03-06T06:33:41.899Z,98940.60
2023-03-06T06:36:21.659Z,98936.80
2023-03-06T06:38:50.062Z,98935.60
2023-03-06T06:41:51.133Z,98935.60
2023-03-06T06:44:22.025Z,98936.80
2023-03-06T06:47:23.976Z,98938.60
2023-03-06T06:50:13.169Z,98941.00
2023-03-06T06:55:51.843Z,98943.60
2023-03-06T06:58:33.964Z,98940.40
2023-03-06T07:01:08.458Z,98938.80
2023-03-06T07:03:50.676Z,98939.00
2023-03-06T07:06:32.861Z,98937.00
2023-03-06T07:09:15.054Z,98942.80
2023-03-06T07:11:58.266Z,98938.80
2023-03-06T07:14:41.710Z,98939.60
2023-03-06T07:17:23.858Z,98940.40
2023-03-06T07:19:52.777Z,98941.40
2023-03-06T07:22:50.009Z,98945.60
2023-03-06T07:28:28.758Z,98934.60
2023-03-06T07:33:55.418Z,98938.60
2023-03-06T07:36:24.367Z,98947.20
2023-03-06T07:38:52.519Z,98943.80
2023-03-06T07:41:34.680Z,98940.80
2023-03-06T07:44:16.740Z,98944.20
2023-03-06T07:46:45.108Z,98942.80
2023-03-06T07:49:13.677Z,98941.80
2023-03-06T07:51:55.656Z,98943.60
2023-03-06T07:54:37.725Z,98941.20
2023-03-06T07:57:19.904Z,98943.20
2023-03-06T08:00:02.392Z,98941.00
2023-03-06T08:02:30.790Z,98937.60
2023-03-06T08:04:59.370Z,98940.40
2023-03-06T08:07:30.264Z,98938.20
2023-03-06T08:09:58.890Z,98940.20
2023-03-06T08:12:28.360Z,98945.20
2023-03-06T08:14:56.965Z,98942.20
2023-03-06T08:17:25.461Z,98948.40
2023-03-06T08:19:53.961Z,98942.40
2023-03-06T08:22:22.359Z,98940.40
2023-03-06T08:24:56.849Z,98939.40
2023-03-06T08:27:39.417Z,98938.80
2023-03-06T08:30:09.557Z,98936.40
2023-03-06T08:32:38.436Z,98941.80
2023-03-06T08:35:08.031Z,98945.00
2023-03-06T08:37:36.682Z,98940.00
2023-03-06T08:40:05.896Z,98942.60
2023-03-06T08:42:34.447Z,98940.60
2023-03-06T08:45:02.955Z,98937.80
2023-03-06T08:47:31.421Z,98939.40
2023-03-06T08:50:00.896Z,98940.20
2023-03-06T08:52:29.655Z,98940.80
2023-03-06T08:55:01.278Z,98937.60
2023-03-06T08:57:43.436Z,98939.00
2023-03-06T09:00:14.118Z,98943.00
2023-03-06T09:02:56.555Z,98943.20
2023-03-06T09:05:25.415Z,98942.00
2023-03-06T09:07:54.295Z,98948.00
2023-03-06T09:10:26.276Z,98940.40
2023-03-06T09:12:55.498Z,98947.60
2023-03-06T09:15:25.195Z,98945.40
2023-03-06T09:17:54.735Z,98948.40
2023-03-06T09:20:23.509Z,98945.40
2023-03-06T09:22:52.040Z,98942.60
2023-03-06T09:25:22.620Z,98946.60
2023-03-06T09:28:11.460Z,98946.60
2023-03-06T09:30:54.428Z,98946.00
2023-03-06T09:33:23.441Z,98947.00
2023-03-06T09:36:02.280Z,98939.00
2023-03-06T09:38:30.785Z,98937.00
2023-03-06T09:41:00.359Z,98935.00
2023-03-06T09:43:42.860Z,98930.80
2023-03-06T09:46:43.965Z,98929.40
2023-03-06T09:50:10.063Z,98930.20
2023-03-06T09:52:54.551Z,98923.80
2023-03-06T09:55:27.496Z,98926.80
2023-03-06T09:58:29.040Z,98928.60
2023-03-06T10:01:04.538Z,98922.60
2023-03-06T10:03:59.957Z,98927.80
2023-03-06T10:06:47.636Z,98925.80
2023-03-06T10:09:30.921Z,98922.00
2023-03-06T10:12:26.755Z,98920.20
2023-03-06T10:15:05.136Z,98919.60
2023-03-06T10:17:43.153Z,98919.00
2023-03-06T10:20:37.500Z,98913.20
2023-03-06T10:23:50.186Z,98907.80
2023-03-06T10:26:32.887Z,98904.20
2023-03-06T10:30:00.122Z,98896.60
2023-03-06T10:32:55.575Z,98889.60
2023-03-06T10:35:45.769Z,98894.00
2023-03-06T10:38:25.029Z,98891.60
2023-03-06T10:41:13.190Z,98888.80
2023-03-06T10:44:05.485Z,98893.80
2023-03-06T10:46:36.887Z,98885.20
2023-03-06T10:49:23.045Z,98885.60
2023-03-06T10:52:14.061Z,98885.40
2023-03-06T10:57:40.964Z,98885.80
2023-03-06T11:00:38.784Z,98879.40
2023-03-06T11:06:41.519Z,98866.80
2023-03-06T11:09:26.212Z,98857.40
2023-03-06T11:21:40.090Z,98856.20
2023-03-06T11:34:04.536Z,98851.80
2023-03-06T11:36:49.696Z,98851.60
2023-03-06T11:39:44.920Z,98848.00
2023-03-06T11:42:33.918Z,98846.00
2023-03-06T11:45:43.836Z,98846.20
2023-03-06T11:48:38.074Z,98841.20
2023-03-06T11:51:26.075Z,98840.00
2023-03-06T11:53:55.421Z,98836.80
2023-03-06T12:04:13.995Z,98831.00
2023-03-06T12:07:11.032Z,98823.60
2023-03-06T12:10:35.356Z,98823.80
2023-03-06T12:13:38.871Z,98816.80
2023-03-06T12:16:47.338Z,98820.20
2023-03-06T12:19:55.194Z,98822.60
2023-03-06T12:22:57.964Z,98821.80
2023-03-06T12:25:55.315Z,98820.00
2023-03-06T12:32:40.688Z,98820.80
2023-03-06T12:35:54.174Z,98828.40
2023-03-06T12:41:59.439Z,98831.20
2023-03-06T12:45:11.608Z,98829.80
2023-03-06T12:47:57.517Z,98832.80
2023-03-06T12:50:44.525Z,98836.60
2023-03-06T12:53:32.872Z,98838.60
2023-03-06T12:56:18.369Z,98845.40
2023-03-06T12:59:03.774Z,98850.60
2023-03-06T13:02:04.480Z,98850.80
2023-03-06T13:05:14.306Z,98854.80
2023-03-06T13:08:35.173Z,98851.00
2023-03-06T13:11:44.955Z,98854.20
2023-03-06T13:14:48.720Z,98847.80
2023-03-06T13:17:37.968Z,98854.20
2023-03-06T13:20:44.636Z,98856.60
2023-03-06T13:23:35.794Z,98854.60
2023-03-06T13:26:26.349Z,98858.00
2023-03-06T13:28:58.081Z,98856.80
2023-03-06T13:31:40.225Z,98850.60
2023-03-06T13:34:46.939Z,98848.60
2023-03-06T13:37:29.059Z,98856.00
2023-03-06T13:40:15.187Z,98858.00
2023-03-06T13:42:43.287Z,98861.00
2023-03-06T13:48:46.085Z,98843.40
2023-03-06T13:51:35.093Z,98831.60
2023-03-06T13:58:18.025Z,98816.40
2023-03-06T14:01:22.478Z,98807.40
2023-03-06T14:07:24.514Z,98794.60
2023-03-06T14:10:24.903Z,98787.40
2023-03-06T14:13:45.277Z,98783.60
2023-03-06T14:16:49.477Z,98786.20
2023-03-06T14:19:38.864Z,98782.60
2023-03-06T14:22:22.122Z,98775.80
2023-03-06T14:25:33.579Z,98774.20
2023-03-06T14:28:13.662Z,98773.40
2023-03-06T14:30:59.597Z,98766.40
2023-03-06T14:33:50.725Z,98761.80
2023-03-06T14:39:42.067Z,98771.00
2023-03-06T14:42:21.196Z,98765.40
2023-03-06T14:45:21.383Z,98763.80
2023-03-06T14:47:53.086Z,98760.20
2023-03-06T14:50:36.136Z,98754.40
2023-03-06T14:53:19.129Z,98752.20
2023-03-06T14:56:00.238Z,98748.20
2023-03-06T14:58:40.511Z,98749.20
2023-03-06T15:01:13.812Z,98747.20
2023-03-06T15:04:00.639Z,98747.60
2023-03-06T15:06:45.388Z,98748.80
2023-03-06T15:09:27.120Z,98749.40
2023-03-06T15:12:20.408Z,98750.60
2023-03-06T15:15:08.702Z,98749.00
2023-03-06T15:17:42.658Z,98750.60
2023-03-06T15:21:36.504Z,98749.80
2023-03-06T15:24:37.452Z,98748.80
2023-03-06T15:30:36.318Z,98754.40
2023-03-06T15:33:26.636Z,98757.20
2023-03-06T15:36:04.803Z,98750.60
2023-03-06T15:41:35.804Z,98748.20
2023-03-06T15:47:08.740Z,98747.80
2023-03-06T15:49:53.383Z,98749.20
2023-03-06T15:52:35.386Z,98749.00
2023-03-06T15:55:03.855Z,98748.20
2023-03-06T15:57:57.720Z,98755.00
2023-03-06T16:00:40.254Z,98749.60
2023-03-06T16:08:47.043Z,98760.40
2023-03-06T16:11:43.367Z,98762.20
2023-03-06T16:14:26.265Z,98762.60
2023-03-06T16:17:12.159Z,98758.00
2023-03-06T16:22:36.288Z,98765.00
2023-03-06T16:25:18.512Z,98770.80
2023-03-06T16:28:01.213Z,98767.20
2023-03-06T16:30:32.854Z,98772.60
2023-03-06T16:35:57.212Z,98774.80
2023-03-06T16:38:25.718Z,98774.00
2023-03-06T16:40:54.273Z,98771.80
2023-03-06T16:43:22.918Z,98776.20
2023-03-06T16:45:51.698Z,98781.80
2023-03-06T16:48:20.930Z,98781.60
2023-03-06T16:50:49.770Z,98779.20
2023-03-06T16:53:18.647Z,98784.60
2023-03-06T16:55:46.982Z,98786.20
2023-03-06T16:58:16.370Z,98787.20
2023-03-06T17:00:45.400Z,98783.40
2023-03-06T17:03:13.919Z,98784.60
2023-03-06T17:05:44.077Z,98788.40
2023-03-06T17:08:26.285Z,98789.60
2023-03-06T17:10:54.741Z,98784.80
2023-03-06T17:13:23.193Z,98781.20
2023-03-06T17:15:59.604Z,98784.00
2023-03-06T17:18:29.796Z,98789.80
2023-03-06T17:20:58.707Z,98789.40
2023-03-06T17:23:29.858Z,98787.80
2023-03-06T17:26:10.336Z,98795.20
2023-03-06T17:28:39.776Z,98792.60
2023-03-06T17:31:25.079Z,98796.80
2023-03-06T17:34:02.136Z,98802.20
2023-03-06T17:36:31.961Z,98798.60
2023-03-06T17:39:03.108Z,98801.00
2023-03-06T17:41:33.093Z,98806.40
2023-03-06T17:44:02.126Z,98809.80
2023-03-06T17:46:34.816Z,98804.80
2023-03-06T17:49:19.546Z,98801.80
2023-03-06T17:52:03.181Z,98803.80
2023-03-06T17:54:46.377Z,98808.80
2023-03-06T17:57:14.818Z,98813.00
2023-03-06T17:59:57.115Z,98813.80
2023-03-06T18:05:09.008Z,98816.80
2023-03-06T18:07:37.784Z,98819.60
2023-03-06T18:10:07.034Z,98818.40
2023-03-06T18:12:35.294Z,98816.60
2023-03-06T18:18:18.331Z,98808.40
2023-03-06T18:21:06.604Z,98806.80
2023-03-06T18:23:36.305Z,98813.60
2023-03-06T18:26:26.246Z,98819.00
2023-03-06T18:34:34.881Z,98820.80
2023-03-06T18:37:03.540Z,98820.20
2023-03-06T18:39:32.183Z,98819.60
2023-03-06T18:42:00.453Z,98821.40
2023-03-06T18:44:28.861Z,98827.60
2023-03-06T18:46:57.340Z,98827.80
2023-03-06T18:49:25.916Z,98826.40
2023-03-06T18:54:36.319Z,98824.80
2023-03-06T18:57:04.984Z,98828.80
2023-03-06T18:59:33.594Z,98828.40
2023-03-06T19:02:02.238Z,98832.00
2023-03-06T19:04:30.841Z,98830.40
2023-03-06T19:07:01.109Z,98833.20
2023-03-06T19:09:44.679Z,98835.40
2023-03-06T19:12:26.750Z,98832.80
2023-03-06T19:14:55.306Z,98833.80
2023-03-06T19:17:25.004Z,98836.40
2023-03-06T19:19:55.208Z,98839.80
2023-03-06T19:22:23.732Z,98846.20
2023-03-06T19:24:52.311Z,98846.80
2023-03-06T19:27:20.919Z,98849.40
2023-03-06T19:29:49.370Z,98850.80
2023-03-06T19:32:31.512Z,98850.40
2023-03-06T19:34:59.911Z,98852.60
2023-03-06T19:37:28.569Z,98849.40
2023-03-06T19:42:43.731Z,98846.60
2023-03-06T19:45:12.931Z,98851.80
2023-03-06T19:48:00.674Z,98849.60
2023-03-06T19:50:29.962Z,98848.80
2023-03-06T19:52:58.771Z,98853.60
2023-03-06T19:55:29.272Z,98856.40
2023-03-06T19:57:59.516Z,98860.00
2023-03-06T20:00:28.837Z,98863.40
2023-03-06T20:02:58.020Z,98863.00
2023-03-06T20:05:47.949Z,98863.20
2023-03-06T20:08:17.018Z,98862.40
2023-03-06T20:10:45.258Z,98861.40
2023-03-06T20:13:13.712Z,98868.40
2023-03-06T20:15:41.842Z,98878.40
2023-03-06T20:18:10.346Z,98878.80
2023-03-06T20:20:40.225Z,98876.60
2023-03-06T20:23:22.254Z,98883.40
2023-03-06T20:25:50.661Z,98885.80
2023-03-06T20:28:34.013Z,98880.80
2023-03-06T20:31:22.713Z,98880.00
2023-03-06T20:34:05.564Z,98880.80
2023-03-06T20:36:40.621Z,98875.60
2023-03-06T20:39:13.638Z,98878.60
2023-03-06T20:41:42.760Z,98877.40
2023-03-06T20:44:31.135Z,98883.60
2023-03-06T20:47:01.184Z,98877.00
2023-03-06T20:49:29.805Z,98876.40
2023-03-06T20:51:58.162Z,98871.20
2023-03-06T20:54:26.684Z,98868.00
2023-03-06T20:56:55.095Z,98866.40
2023-03-06T20:59:24.544Z,98869.80
2023-03-06T21:01:52.897Z,98863.40
2023-03-06T21:04:21.366Z,98862.60
2023-03-06T21:06:54.029Z,98867.80
2023-03-06T21:09:22.505Z,98865.20
2023-03-06T21:11:50.992Z,98861.60
2023-03-06T21:14:19.344Z,98862.40
2023-03-06T21:17:01.484Z,98863.00
2023-03-06T21:19:30.006Z,98864.20
2023-03-06T21:21:58.593Z,98862.00
2023-03-06T21:24:27.167Z,98856.20
2023-03-06T21:26:55.669Z,98855.40
2023-03-06T21:29:24.248Z,98854.20
2023-03-06T21:31:52.812Z,98856.60
2023-03-06T21:34:21.307Z,98852.00
2023-03-06T21:36:51.221Z,98861.40
2023-03-06T21:39:19.471Z,98861.40
2023-03-06T21:41:47.974Z,98855.00
2023-03-06T21:44:16.706Z,98856.00
2023-03-06T21:46:45.271Z,98859.40
2023-03-06T21:49:27.550Z,98864.20
2023-03-06T21:51:56.010Z,98857.20
2023-03-06T21:54:24.448Z,98855.60
2023-03-06T21:56:53.557Z,98860.20
2023-03-06T21:59:21.809Z,98853.40
2023-03-06T22:01:50.328Z,98853.80
2023-03-06T22:04:18.601Z,98846.20
2023-03-06T22:06:46.817Z,98847.40
2023-03-06T22:09:28.941Z,98850.40
2023-03-06T22:12:11.057Z,98851.40
2023-03-06T22:14:53.153Z,98845.40
2023-03-06T22:17:35.473Z,98845.00
2023-03-06T22:20:17.637Z,98845.00
2023-03-06T22:22:59.645Z,98847.60
2023-03-06T22:25:27.746Z,98846.40
2023-03-06T22:28:09.845Z,98845.40
2023-03-06T22:30:51.846Z,98845.20
2023-03-06T22:33:34.067Z,98842.80
2023-03-06T22:36:16.486Z,98844.00
2023-03-06T22:39:01.696Z,98845.20
2023-03-06T22:41:43.630Z,98838.60
2023-03-06T22:47:21.411Z,98839.20
2023-03-06T22:50:04.905Z,98836.60
2023-03-06T22:52:46.871Z,98840.20
2023-03-06T22:55:28.842Z,98838.80
2023-03-06T22:57:56.955Z,98837.80
2023-03-06T23:00:26.769Z,98838.40
2023-03-06T23:02:55.569Z,98842.80
2023-03-06T23:05:24.779Z,98835.00
2023-03-06T23:07:53.381Z,98835.20
2023-03-06T23:10:22.330Z,98834.40
2023-03-06T23:12:50.841Z,98833.60
2023-03-06T23:15:19.327Z,98838.60
2023-03-06T23:17:48.078Z,98838.00
2023-03-06T23:20:16.486Z,98832.60
2023-03-06T23:22:44.838Z,98835.80
2023-03-06T23:25:13.310Z,98834.80
2023-03-06T23:27:41.799Z,98834.60
2023-03-06T23:30:11.374Z,98834.60
2023-03-06T23:32:39.623Z,98839.20
2023-03-06T23:35:08.612Z,98838.20
2023-03-06T23:37:36.944Z,98837.40
2023-03-06T23:40:08.086Z,98841.40
2023-03-06T23:42:36.788Z,98836.00
2023-03-06T23:45:06.183Z,98838.20
2023-03-06T23:47:35.121Z,98843.20
2023-03-06T23:50:03.786Z,98838.40
2023-03-06T23:52:32.203Z,98840.80
2023-03-06T23:55:00.494Z,98834.80
2023-03-06T23:57:30.772Z,98839.40
